WEATHER DATA

YESTERDAY
Time Temp. Dewp. Hum. Bar. 1h Prec. 24h Prec.
00:05 6.7 4 83 1021.9 0.0000 0.0000
00:14 6.7 4 83 1021.7 0.0000 0.0000
00:24 6.7 4 83 1021.5 0.0000 0.0000
00:35 6.6 3.9 83 1021.1 0.0000 0.0000
00:45 6.6 4.1 84 1020.9 0.0000 0.0000
00:55 6.7 4.2 84 1020.8 0.0000 0.0000
01:05 6.8 4.3 84 1020.8 0.0000 0.0000
01:15 6.9 4.4 84 1020.9 0.0000 0.0000
01:25 7 4.5 84 1020.7 0.0000 0.0000
01:35 7.1 4.6 84 1020.2 0.0000 0.0000
01:46 7.1 4.6 84 1020.2 0.0000 0.0000
01:55 7.2 4.7 84 1019.9 0.0000 0.0000
02:05 7.2 4.7 84 1019.8 0.0000 0.0000
02:15 7.2 4.7 84 1019.6 0.0000 0.0000
02:26 7.3 4.8 84 1019.7 0.0000 0.0000
02:36 7.4 4.9 84 1019.8 0.0000 0.0000
02:45 7.5 5 84 1019.7 0.0000 0.0000
02:56 7.5 5 84 1019.8 0.0000 0.0000
03:06 7.4 5 85 1019.6 0.0000 0.0000
03:16 7.4 5 85 1019.3 0.0000 0.0000
03:26 7.4 5 85 1019.2 0.0000 0.0000
03:36 7.5 5.1 85 1018.9 0.0000 0.0000
03:46 7.6 5.2 85 1018.8 0.0000 0.0000
03:56 7.8 5.3 84 1018.5 0.0000 0.0000
04:07 8 5.5 84 1018.3 0.0000 0.0000
04:16 8.1 5.6 84 1018.3 0.0000 0.0000
04:26 8.1 5.6 84 1018.1 0.0000 0.0000
04:36 8.1 5.4 83 1017.9 0.0000 0.0000
04:47 8.1 5.4 83 1018 0.0000 0.0000
04:57 8.3 5.8 84 1017.8 0.0000 0.0000
05:06 8.4 5.7 83 1017.7 0.0000 0.0000
05:17 8.4 5.7 83 1017.6 0.0000 0.0000
05:27 8.4 5.5 82 1017.5 0.0000 0.0000
05:37 8.4 5.7 83 1017.1 0.0000 0.0000
05:47 8.5 5.6 82 1017.1 0.0000 0.0000
05:57 8.4 5.5 82 1017.2 0.0000 0.0000
06:07 8.4 5.3 81 1017.2 0.0000 0.0000
06:17 8.4 5.2 80 1017.3 0.0000 0.0000
06:28 8.3 4.3 76 1017.3 0.0000 0.0000
06:38 8.2 3.8 74 1017.5 0.0000 0.0000
06:47 8 3.7 74 1017.7 0.0000 0.0000
06:57 7.8 3.5 74 1017.8 0.0000 0.0000
07:08 7.6 3.5 75 1018.1 0.0000 0.0000
07:18 7.4 3.1 74 1018 0.0000 0.0000
07:27 7.3 2.8 73 1018 0.0000 0.0000
07:38 7.2 2.7 73 1018.1 0.0000 0.0000
07:48 7.2 2.9 74 1018.1 0.0000 0.0000
07:58 7.1 2.8 74 1018.1 0.0000 0.0000
08:08 7 2.7 74 1017.9 0.0000 0.0000
08:19 7 2.7 74 1017.9 0.0000 0.0000
08:28 7.1 2.8 74 1018.2 0.0000 0.0000
08:38 7.2 3.1 75 1018.4 0.0000 0.0000
08:49 7.3 3 74 1018.5 0.0000 0.0000
08:59 7.4 3.1 74 1018.7 0.0000 0.0000
09:08 7.4 3.1 74 1018.8 0.0000 0.0000
09:18 7.4 3.1 74 1019.1 0.0000 0.0000
09:29 7.2 2.9 74 1019.3 0.0000 0.0000
09:39 7.2 2.7 73 1019.4 0.0000 0.0000
09:49 7 1.3 67 1019.6 0.0000 0.0000
09:59 6.9 2.2 72 1019.7 0.0000 0.0000
10:09 6.9 2 71 1019.9 0.0000 0.0000
10:19 6.9 1.8 70 1019.9 0.0000 0.0000
10:29 6.9 1.6 69 1019.9 0.1010 0.1000
10:40 6.9 1.4 68 1020 0.1010 0.1000
10:49 7 1.7 69 1020 0.2020 0.2000
10:59 7 1.7 69 1020 0.2020 0.2000
11:10 7.1 1.8 69 1019.9 0.2020 0.2000
11:20 7.2 1.7 68 1019.9 0.1010 0.2000
11:30 7.3 1.6 67 1020.1 0.1010 0.2000
11:39 7.4 1.5 66 1020.3 0.0000 0.2000
11:50 7.5 1.4 65 1020.6 0.2020 0.4000
12:00 7.6 1.4 65 1020.4 0.2020 0.4000
12:10 7.6 1.4 65 1020.5 0.2020 0.4000
12:26 7.8 1.6 65 1020.7 0.3030 0.5000
12:36 7.6 1.7 66 1021 0.3030 0.5000
12:46 7.4 1.9 68 1020.9 0.1010 0.5000
12:56 7.2 1.7 68 1021 0.1010 0.5000
13:07 7.4 1.9 68 1020.9 0.1010 0.5000
13:17 7.5 1.8 67 1021.1 0.1010 0.5000
13:26 7.5 1.8 67 1020.9 0.0000 0.5000
13:36 7.6 1.7 66 1020.8 0.0000 0.5000
13:47 7.7 1.8 66 1021 0.0000 0.5000
13:57 7.8 1.9 66 1020.8 0.0000 0.5000
14:07 7.6 1.9 67 1020.8 0.0000 0.5000
14:17 7.4 1.7 67 1020.9 0.0000 0.5000
14:27 7.1 2.2 71 1020.8 0.0000 0.5000
14:37 6.8 2.3 73 1020.9 0.0000 0.5000
14:47 6.5 2.2 74 1021 0.0000 0.5000
14:58 6.6 2.3 74 1020.9 0.0000 0.5000
15:07 6.7 2.2 73 1020.8 0.0000 0.5000
15:17 6.6 2.1 73 1020.8 0.0000 0.5000
15:28 6.6 2.5 75 1020.9 0.1010 0.6000
15:38 6.2 2.1 75 1020.8 0.1010 0.6000
15:48 6.1 2.2 76 1021 0.1010 0.6000
15:58 6.1 2.4 77 1021.2 0.3030 0.8000
16:08 5.6 2.1 78 1021.2 0.5050 1.0000
16:18 5.3 1.8 78 1021.1 0.5050 1.0000
16:28 5 1.5 78 1020.9 0.4040 1.0000
16:38 4.9 1.6 79 1020.7 0.4040 1.0000
16:48 4.9 1.6 79 1020.7 0.4040 1.0000
16:58 5 1.5 78 1020.6 0.2020 1.0000
17:08 5 1.5 78 1020.6 0.0000 1.0000
17:19 5.2 1.5 77 1020.4 0.0000 1.0000
17:28 5.2 1.7 78 1020.5 0.1010 1.1000
17:38 5.2 1.7 78 1020.1 0.1010 1.1000
17:49 5.1 1.8 79 1020 0.1010 1.1000
17:59 5 1.7 79 1019.7 0.1010 1.1000
18:09 5.1 1.6 78 1019.7 0.1010 1.1000
18:19 5.2 1.5 77 1019.7 0.0000 1.1000
18:39 5.3 1.4 76 1019.3 0.0000 1.1000
18:49 5.3 1.2 75 1019.1 0.0000 1.1000
19:00 5.3 1.2 75 1019.1 0.0000 1.1000
19:10 5.3 1.2 75 1019 0.0000 1.1000
19:19 5.3 1.2 75 1019.1 0.0000 1.1000
19:29 5.4 1.1 74 1019.1 0.0000 1.1000
19:40 5.5 1.1 73 1019.1 0.0000 1.1000
19:50 5.5 1.1 73 1019.1 0.1010 1.2000
20:00 5.6 1.1 73 1019.1 0.1010 1.2000
20:10 5.6 1.1 73 1019.3 0.1010 1.2000
20:20 5.6 1.1 73 1019.3 0.1010 1.2000
20:30 5.6 1.3 74 1019.6 0.1010 1.2000
20:40 5.6 1.5 75 1019.2 0.1010 1.2000
20:51 5.5 1.6 76 1019.1 0.0000 1.2000
21:00 5.6 1.7 76 1019.3 0.0000 1.2000
21:10 5.8 1.7 75 1019.5 0.0000 1.2000
21:20 5.9 1.8 75 1019.2 0.1010 1.3000
21:31 5.9 2 76 1019.2 0.1010 1.3000
21:41 5.8 1.9 76 1019 0.1010 1.3000
21:50 5.8 1.9 76 1019.2 0.1010 1.3000
22:01 6 2.1 76 1019.3 0.1010 1.3000
22:11 6 2.1 76 1019.3 0.0000 1.3000
22:21 6 2.1 76 1019.4 0.0000 1.3000
22:31 6 2.1 76 1019.3 0.0000 1.3000
22:41 5.9 2.2 77 1019.4 0.0000 1.3000
22:51 5.8 2.1 77 1019.4 0.0000 1.3000
23:01 5.8 2.1 77 1019.4 0.0000 1.3000
23:12 5.8 2.4 79 1019.2 0.1010 1.4000
23:19 5.7 2.7 81 1019.3 0.3030 1.6000
23:30 5.3 2.5 82 1019.1 0.3030 1.6000
23:40 5 2.2 82 1019 0.3030 1.6000
23:50 4.9 2.1 82 1019 0.3030 1.6000

DAY STATISTIC

2023-01-31
TEMPERATURE
AVERAGE
6.7
HIGH
8.5
05:47
LOW
4.9
16:38
PRESSURE
AVERAGE
1019.6
HIGH
1021.9
00:05
LOW
1017.1
05:37
DEWPOINT
AVERAGE
2.8
HIGH
5.8
04:57
LOW
1.1
19:29
HUMIDITY
AVERAGE
76
HIGH
85
03:06
LOW
65
11:50
PRECIPITATION
RAIN HOUR
0.5
RAIN DAY
1.6
TEMPERATURE (°C)
LOW
4.9
HIGH
8.5
AVERAGE
6.7
PRESSURE (hpa)
LOW
1017.1
HIGH
1021.9
AVERAGE
1019.6
DEVICE